Nathaniel B. Palmer — WBP3210 — position and weather

sailwx.info

Track history (hours):
 
Tides and Currents Weather Stations Pressure Air Temp Water Temp Dewpoint Dewpoint Depression Visibility Wind Speed Wind Dir Waves Ship Positions

Oceanographic research ship Nathaniel B. Palmer (USA)

Contact: Ethan Norris, ethan.norris.contractor@usap.gov

Detailed information on ship capabilities available from University of Delaware's Ocean Information Center and ARCUS's ALIAS (Arctic Logistics Information and Support) project.

Owner: OFFSHORE SERVICE VESSELS, Cut Off, LA. More information available from US FCC via Universal Licensing System and Coast Guard Vessel Documentation Center.

Last reported at 2018-Dec-12 23:00 UTC. Time now 2018-Dec-12 23:50 UTC.
Position S 53°06' W 070°54'.

Type: Other ship. MMSI: 366610000.

Wind from 310 at 11 knots

Barometer 999.1 mb
Air temperature 15.4 ° C
Water temperature -0.0 ° C

Date/timePositionNaut miles runAvg speedWind from/ knotsBaromVisibWave heightAir tempDewpointWater temp
2018-Dec-12 23:00S 53°06' W 070°54'0 0.0 310 / 11999.1 15.4 -0.0
2018-Dec-12 22:00S 53°06' W 070°54'0 0.0 330 / 11999.2 15.9 -0.0
2018-Dec-12 21:00S 53°06' W 070°54'0 0.0 350 / 12999.6 16.0 -0.0
2018-Dec-12 20:00S 53°06' W 070°54'0 0.0 340 / 13999.8 15.7 -0.0
2018-Dec-12 19:00S 53°06' W 070°54'0 0.0 350 / 141000.3 15.3 -0.0
2018-Dec-12 18:00S 53°06' W 070°54'0 0.0 340 / 151000.5 14.7 -0.0
2018-Dec-12 17:00S 53°06' W 070°54'0 0.0 340 / 131001.1 14.4 -0.0
2018-Dec-12 16:00S 53°06' W 070°54'0 0.0 350 / 131001.4 13.7 -0.0
2018-Dec-12 15:00S 53°06' W 070°54'0 0.0 350 / 131001.6 13.2 -0.0
2018-Dec-12 14:00S 53°06' W 070°54'4 3.6 1001.9 12.8 -0.0
2018-Dec-12 13:00S 53°06' W 070°48'9 9.4 010 / 121002.6 10.4 -0.0
2018-Dec-12 12:00S 53°00' W 070°36'9 9.4 360 / 151003.2 9.9 -0.0
2018-Dec-12 11:00S 52°54' W 070°24'1212.0 340 / 211003.7 9.4 -0.0
2018-Dec-12 10:00S 52°42' W 070°24'7 7.3 340 / 181004.1 9.4 -0.0
2018-Dec-12 09:00S 52°42' W 070°12'1212.5 340 / 181004.1 10.0 -0.0
2018-Dec-12 08:00S 52°36' W 069°54'1212.5 340 / 111004.7 9.7 -0.0
2018-Dec-12 07:00S 52°30' W 069°36'1616.3 330 / 91005.6 9.5 -0.0
2018-Dec-12 06:00S 52°18' W 069°18'1111.0 330 / 141006.0 9.4 -0.0
2018-Dec-12 05:00S 52°18' W 069°00'1312.5 320 / 161006.3 10.0 -0.0
2018-Dec-12 04:00S 52°24' W 068°42'9 9.5 300 / 211006.1 10.2 -0.0
2018-Dec-12 03:00S 52°30' W 068°30'1212.5 290 / 171006.1 9.8 -0.0
2018-Dec-12 02:00S 52°36' W 068°12'1110.9 280 / 141006.2 9.7 -0.0
2018-Dec-12 01:00S 52°36' W 067°54'1414.0 260 / 161005.6 9.9 -0.0
2018-Dec-12 00:00S 52°24' W 067°42'9 9.5 260 / 181005.5 9.9 -0.0
2018-Dec-11 23:00S 52°18' W 067°30'7 7.0 260 / 221005.0 10.0 -0.0
2018-Dec-11 22:00S 52°12' W 067°24'1414.1 250 / 241004.8 10.0 -0.0
2018-Dec-11 21:00S 52°00' W 067°12'1312.6 240 / 201004.8 9.7 -0.0
2018-Dec-11 20:00S 51°48' W 067°06'0 0.0 240 / 231004.4 9.4 -0.0
2018-Dec-11 19:00S 51°48' W 067°06'8510.6 230 / 241004.0 9.4 -0.0
2018-Dec-11 11:00S 50°30' W 066°12'7 7.1 230 / 191000.3 11.8 22.2
2018-Dec-11 10:00S 50°24' W 066°06'1312.6 220 / 12999.3 12.1 22.2
2018-Dec-11 09:00S 50°12' W 066°00'1312.6 240 / 12998.2 12.8 22.2
2018-Dec-11 08:00S 50°00' W 065°54'7 7.1 250 / 10997.4 13.7 22.2
2018-Dec-11 07:00S 49°54' W 065°48'1312.6 270 / 8996.9 14.1 22.2
2018-Dec-11 06:00S 49°42' W 065°42'7 7.1 240 / 10996.8 14.4 22.2
2018-Dec-11 05:00S 49°36' W 065°36'1312.6 240 / 12996.6 13.9 22.2
2018-Dec-11 04:00S 49°24' W 065°30'7 7.2 270 / 17996.7 15.3 22.2
2018-Dec-11 03:00S 49°18' W 065°24'1312.6 290 / 22996.3 16.5 22.2
2018-Dec-11 02:00S 49°06' W 065°18'1312.6 300 / 20996.2 17.2 22.2
2018-Dec-11 01:00S 48°54' W 065°12'10 9.9 310 / 13996.6 17.9 22.2
2018-Dec-11 00:00S 48°48' W 065°00'1312.6 270 / 4996.5 16.7 22.2
2018-Dec-10 23:00S 48°36' W 064°54'1312.6 040 / 7995.6 15.3 22.2
2018-Dec-10 22:00S 48°24' W 064°48'7 7.2 010 / 12995.5 15.0 22.2
2018-Dec-10 21:00S 48°18' W 064°42'1312.6 360 / 12996.0 14.1 22.2
2018-Dec-10 20:00S 48°06' W 064°36'7 7.2 350 / 13996.6 13.8 22.2
2018-Dec-10 19:00S 48°00' W 064°30'1312.7 330 / 12997.2 13.5 22.2
2018-Dec-10 18:00S 47°48' W 064°24'7 7.2 330 / 18997.8 13.7 22.2
2018-Dec-10 17:00S 47°42' W 064°18'1312.7 320 / 22998.3 13.9 22.2
2018-Dec-10 16:00S 47°30' W 064°12'1312.7 320 / 21998.9 14.0 22.2
2018-Dec-10 15:00S 47°18' W 064°06'7 7.3 310 / 21999.6 14.3 22.2
2018-Dec-10 14:00S 47°12' W 064°00'1312.7 310 / 161000.4 14.1 22.2
2018-Dec-10 13:00S 47°00' W 063°54'1312.7 300 / 181000.9 14.1 22.2
2018-Dec-10 12:00S 46°48' W 063°48'7 7.3 290 / 211001.1 14.9 22.2
2018-Dec-10 11:00S 46°42' W 063°42'1312.7 290 / 221000.9 15.7 22.2
2018-Dec-10 10:00S 46°30' W 063°36'7 7.3 300 / 171001.3 15.8 22.2
2018-Dec-10 09:00S 46°24' W 063°30'1312.7 300 / 161001.9 15.3 22.2
2018-Dec-10 08:00S 46°12' W 063°24'1312.7 320 / 131002.3 15.0 22.2
2018-Dec-10 07:00S 46°00' W 063°18'7 7.3 350 / 101002.9 14.6 22.2
2018-Dec-10 06:00S 45°54' W 063°12'1312.7 1003.5 14.5 22.2
2018-Dec-10 05:00S 45°42' W 063°06'1312.7 340 / 91004.4 14.3 22.2
2018-Dec-10 04:00S 45°30' W 063°00'7 7.3 330 / 111004.8 14.1 22.2
2018-Dec-10 03:00S 45°24' W 062°54'1312.7 310 / 121004.9 14.1 22.2
2018-Dec-10 02:00S 45°12' W 062°48'7 7.3 310 / 111005.0 14.2 22.2
2018-Dec-10 01:00S 45°06' W 062°42'1312.7 310 / 51004.5 14.3 22.2
2018-Dec-10 00:00S 44°54' W 062°36'1312.7 200 / 41003.9 14.5 22.2
2018-Dec-09 23:00S 44°42' W 062°30'7 7.4 210 / 81003.9 14.6 22.2
2018-Dec-09 22:00S 44°36' W 062°24'1312.7 220 / 101004.0 14.4 22.2
2018-Dec-09 21:00S 44°24' W 062°18'7 7.4 240 / 141004.1 14.3 22.2
2018-Dec-09 20:00S 44°18' W 062°12'1312.7 240 / 151004.0 14.3 22.2
2018-Dec-09 19:00S 44°06' W 062°06'6 6.0 240 / 191003.7 14.3 22.2
2018-Dec-09 18:00S 44°00' W 062°06'1312.8 250 / 231003.0 14.2 22.2
2018-Dec-09 17:00S 43°48' W 062°00'7 7.4 250 / 191003.0 14.3 22.2
2018-Dec-09 16:00S 43°42' W 061°54'1514.8 250 / 161003.0 14.5 22.2
2018-Dec-09 15:00S 43°30' W 061°42'7 7.4 260 / 131002.8 14.6 22.2
2018-Dec-09 14:00S 43°24' W 061°36'7 7.4 250 / 141002.4 15.0 22.2
2018-Dec-09 13:00S 43°18' W 061°30'1312.8 250 / 151002.1 15.1 22.2
2018-Dec-09 12:00S 43°06' W 061°24'1110.6 260 / 161001.8 15.2 22.2
2018-Dec-09 11:00S 43°00' W 061°12'7 7.4 260 / 201000.9 15.8 22.2
2018-Dec-09 10:00S 42°54' W 061°06'1514.9 250 / 201000.1 16.1 22.2
2018-Dec-09 09:00S 42°42' W 060°54'7 7.4 270 / 13999.7 15.7 22.2
2018-Dec-09 08:00S 42°36' W 060°48'1312.8 300 / 16999.4 16.3 22.2
2018-Dec-09 07:00S 42°24' W 060°42'1110.7 310 / 21999.5 17.5 22.2
2018-Dec-09 06:00S 42°18' W 060°30'7 7.5 310 / 231000.1 18.5 22.2
2018-Dec-09 05:00S 42°12' W 060°24'7 7.5 310 / 151000.2 20.0 22.2
2018-Dec-09 04:00S 42°06' W 060°18'1515.0 010 / 4999.2 24.5 22.2
2018-Dec-09 03:00S 41°54' W 060°06'7 7.5 240 / 221000.2 22.9 22.2
2018-Dec-09 02:00S 41°48' W 060°00'7 7.5 290 / 39999.5 21.2 22.2
2018-Dec-09 01:00S 41°42' W 059°54'1515.0 330 / 241001.5 18.0 22.2
2018-Dec-09 00:00S 41°30' W 059°42'7 7.5 360 / 241000.9 17.6 22.2
2018-Dec-08 23:00S 41°24' W 059°36'1312.8 1001.4 17.6 22.2
2018-Dec-08 22:00S 41°12' W 059°30'1110.8 1002.6 17.8 22.2
2018-Dec-08 21:00S 41°06' W 059°18'1312.8 1004.0 17.4 22.2
2018-Dec-08 20:00S 40°54' W 059°12'8 7.5 360 / 211005.6 17.3 22.2
2018-Dec-08 19:00S 40°48' W 059°06'1110.9 350 / 181007.2 16.7 22.2
2018-Dec-08 18:00S 40°42' W 058°54'1312.8 350 / 191008.5 16.7 22.2
2018-Dec-08 17:00S 40°30' W 058°48'8 7.5 340 / 191009.7 16.2 22.2
2018-Dec-08 16:00S 40°24' W 058°42'1110.9 340 / 181011.0 15.6 22.2
2018-Dec-08 15:00S 40°18' W 058°30'1312.8 330 / 181011.9 15.5 22.2
2018-Dec-08 14:00S 40°06' W 058°24'8 7.6 330 / 181012.6 15.7 22.2
2018-Dec-08 13:00S 40°00' W 058°18'1111.0 320 / 181013.5 15.6 22.2
2018-Dec-08 12:00S 39°54' W 058°06'1312.9 310 / 201014.3 15.7 22.2
2018-Dec-08 11:00S 39°42' W 058°00'8 7.6 310 / 191014.6 15.6 22.2
2018-Dec-08 10:00S 39°36' W 057°54'1312.9 320 / 191014.6 15.7 22.2
2018-Dec-08 09:00S 39°24' W 057°48'1111.1 310 / 201014.8 15.8 22.2
2018-Dec-08 08:00S 39°18' W 057°36'8 7.6 320 / 191015.1 15.8 22.2
2018-Dec-08 07:00S 39°12' W 057°30'8 7.6 320 / 201015.4 16.2 22.2
2018-Dec-08 06:00S 39°06' W 057°24'1312.9 320 / 201016.2 16.4 22.2
2018-Dec-08 05:00S 38°54' W 057°18'8 7.6 330 / 191017.1 16.1 22.2
2018-Dec-08 04:00S 38°48' W 057°12'1111.1 350 / 191018.1 15.9 22.2
2018-Dec-08 03:00S 38°42' W 057°00'1312.9 350 / 181019.2 15.5 22.2
2018-Dec-08 02:00S 38°30' W 056°54'8 7.6 350 / 181019.8 15.1 22.2
2018-Dec-08 01:00S 38°24' W 056°48'1515.3 360 / 161020.3 14.8 22.2
2018-Dec-08 00:00S 38°12' W 056°36'8 7.6 1020.5 14.6 22.2
2018-Dec-07 23:00S 38°06' W 056°30'1111.2 360 / 141020.9 14.5 22.2
2018-Dec-07 22:00S 38°00' W 056°18'1111.2 350 / 101021.5 14.2 22.2
2018-Dec-07 21:00S 37°54' W 056°06'8 7.6 340 / 71022.1 13.7 22.2
2018-Dec-07 20:00S 37°48' W 056°00'1515.3 330 / 61022.9 13.1 22.2
2018-Dec-07 19:00S 37°36' W 055°48'8 7.7 290 / 71023.7 12.6 22.2
2018-Dec-07 18:00S 37°30' W 055°42'8 7.7 270 / 81024.3 12.1 22.2
2018-Dec-07 17:00S 37°24' W 055°36'1312.9 250 / 71024.9 11.9 22.2
2018-Dec-07 16:00S 37°12' W 055°30'8 7.7 230 / 81025.3 11.9 22.2
2018-Dec-07 15:00S 37°06' W 055°24'1312.9 230 / 91025.3 11.8 22.2
2018-Dec-07 14:00S 36°54' W 055°18'8 7.7 220 / 111025.4 11.8 22.2
2018-Dec-07 13:00S 36°48' W 055°12'8 7.7 200 / 121025.3 11.8 22.2
2018-Dec-07 12:00S 36°42' W 055°06'1312.9 200 / 141025.3 11.9 22.2
2018-Dec-07 11:00S 36°30' W 055°00'8 7.7 200 / 161024.6 12.0 22.2
2018-Dec-07 10:00S 36°24' W 054°54'1212.0 200 / 181024.2 11.8 22.2
2018-Dec-07 09:00S 36°12' W 054°54'8 7.7 190 / 181023.8 11.7 22.2
2018-Dec-07 08:00S 36°06' W 055°00'1212.0 190 / 181023.4 12.0 22.2
2018-Dec-07 07:00S 35°54' W 055°00'1212.0 180 / 181023.3 12.3 22.2
2018-Dec-07 06:00S 35°42' W 055°00'6 6.0 180 / 161023.5 12.4 22.2
2018-Dec-07 05:00S 35°36' W 055°00'1212.0 170 / 161023.8 12.6 22.2
2018-Dec-07 04:00S 35°24' W 055°00'6 6.0 180 / 191024.2 12.8 22.2
2018-Dec-07 03:00S 35°18' W 055°00'1212.0 180 / 191024.4 13.0 22.2
2018-Dec-07 02:00S 35°06' W 055°00'8 7.8 180 / 181024.4 13.3 22.2
2018-Dec-07 01:00S 35°00' W 055°06'10 9.8 180 / 171024.2 13.6 22.2
2018-Dec-07 00:00S 35°00' W 055°18'10 9.8 180 / 171023.8 13.8 22.2
2018-Dec-06 23:00S 35°00' W 055°30'1514.7 170 / 181023.3 14.0 22.2
2018-Dec-06 22:00S 35°00' W 055°48'10 9.8 170 / 171023.0 14.2 22.2
2018-Dec-06 21:00S 35°00' W 056°00'1211.5 170 / 161023.1 14.3 22.2
2018-Dec-06 20:00S 34°54' W 056°12'0 0.0 160 / 171023.3 14.6 22.2
2018-Dec-06 19:00S 34°54' W 056°12'0 0.0 170 / 111023.7 15.9 22.2
2018-Dec-06 18:00S 34°54' W 056°12'0 0.0 170 / 111024.0 15.6 22.2
2018-Dec-06 17:00S 34°54' W 056°12'0 0.0 180 / 111024.4 16.0 22.2
2018-Dec-06 16:00S 34°54' W 056°12'0 0.0 180 / 101024.9 15.7 22.2
2018-Dec-06 15:00S 34°54' W 056°12'0 0.0 170 / 101024.5 15.6 22.2
2018-Dec-06 14:00S 34°54' W 056°12'0 0.0 170 / 121023.9 15.2 22.2
2018-Dec-06 13:00S 34°54' W 056°12'0 0.0 170 / 131023.2 15.3 22.2
2018-Dec-06 12:00S 34°54' W 056°12'0 0.0 170 / 131022.5 15.3 22.2
2018-Dec-06 11:00S 34°54' W 056°12'0 0.0 170 / 141021.9 15.3 22.2
2018-Dec-06 10:00S 34°54' W 056°12'0 0.0 170 / 141021.2 15.2 22.2
2018-Dec-06 09:00S 34°54' W 056°12'0 0.0 180 / 161020.4 15.5 22.2
2018-Dec-06 08:00S 34°54' W 056°12'0 0.0 180 / 151019.4 16.1 22.2
2018-Dec-06 07:00S 34°54' W 056°12'0 0.0 180 / 121019.3 16.2 22.2
2018-Dec-06 06:00S 34°54' W 056°12'0 0.0 180 / 131019.2 16.5 22.2
2018-Dec-06 05:00S 34°54' W 056°12'0 0.0 180 / 111019.5 16.6 22.2
2018-Dec-06 04:00S 34°54' W 056°12'0 0.0 180 / 101019.9 16.7 22.2
2018-Dec-06 03:00S 34°54' W 056°12'0 0.0 170 / 101019.9 16.9 22.2
2018-Dec-06 02:00S 34°54' W 056°12'0 0.0 160 / 101019.5 17.0 22.2
2018-Dec-06 01:00S 34°54' W 056°12'0 0.0 160 / 101018.8 17.3 22.2
2018-Dec-06 00:00S 34°54' W 056°12'0 0.0 150 / 121017.7 17.4 22.2
2018-Dec-05 23:00S 34°54' W 056°12'0 0.0 150 / 111017.3 17.8 22.2
2018-Dec-05 22:00S 34°54' W 056°12'8 7.8 150 / 161016.8 17.8 22.2
2018-Dec-05 21:00S 35°00' W 056°06'5 4.9 160 / 121016.8 18.1 22.2
2018-Dec-05 20:00S 35°00' W 056°00'0 0.0 170 / 161016.8 18.1 22.2
2018-Dec-05 19:00S 35°00' W 056°00'0 0.0 180 / 141016.8 18.1 22.2
2018-Dec-05 18:00S 35°00' W 056°00'0 0.0 170 / 151016.7 18.2 22.2
2018-Dec-05 17:00S 35°00' W 056°00'0 0.0 170 / 151016.7 18.1 22.2
2018-Dec-05 16:00S 35°00' W 056°00'5 4.9 170 / 161016.3 17.8 22.2
2018-Dec-05 15:00S 35°00' W 055°54'1514.7 170 / 171015.8 17.6 22.2
2018-Dec-05 14:00S 35°00' W 055°36'10 9.8 170 / 181015.2 17.4 22.2
2018-Dec-05 13:00S 35°00' W 055°24'5 4.9 180 / 191014.3 17.2 22.2
2018-Dec-05 12:00S 35°00' W 055°18'10 9.8 180 / 181013.5 17.1 22.2
2018-Dec-05 11:00S 35°00' W 055°06'10 9.8 190 / 191012.7 17.0 22.2
2018-Dec-05 10:00S 35°00' W 054°54'10 9.8 190 / 191011.6 16.9 22.2
2018-Dec-05 09:00S 35°00' W 054°42'5 4.9 190 / 191010.7 16.6 22.2
2018-Dec-05 08:00S 35°00' W 054°36'1211.5 180 / 201009.6 16.6 22.2
2018-Dec-05 07:00S 34°54' W 054°24'10 9.8 170 / 211008.6 16.6 22.2
2018-Dec-05 06:00S 34°54' W 054°12'8 7.8 170 / 231008.2 16.7 22.2
2018-Dec-05 05:00S 34°48' W 054°06'1211.5 180 / 231008.2 16.8 22.2
2018-Dec-05 04:00S 34°42' W 053°54'1211.6 180 / 211007.9 16.9 22.2
2018-Dec-05 03:00S 34°36' W 053°42'5 4.9 190 / 211007.5 16.9 22.2
2018-Dec-05 02:00S 34°36' W 053°36'1211.6 190 / 241006.7 17.1 22.2
2018-Dec-05 01:00S 34°30' W 053°24'1211.6 190 / 261005.8 17.0 22.2
2018-Dec-05 00:00S 34°24' W 053°12'8 7.8 200 / 281004.8 16.8 22.2
2018-Dec-04 23:00S 34°18' W 053°06'8 7.8 200 / 271004.1 16.9 22.2
2018-Dec-04 22:00S 34°12' W 053°00'10 9.9 200 / 311003.1 17.1 22.2
2018-Dec-04 21:00S 34°12' W 052°48'8 7.8 210 / 341002.3 17.2 22.2
2018-Dec-04 20:00S 34°06' W 052°42'8 7.8 220 / 341002.1 17.3 22.2
2018-Dec-04 19:00S 34°00' W 052°36'5 5.0 220 / 361001.7 17.2 22.2
2018-Dec-04 18:00S 34°00' W 052°30'8 7.8 230 / 341001.8 17.2 22.2
2018-Dec-04 17:00S 33°54' W 052°24'8 7.8 240 / 351001.6 17.1 22.2
2018-Dec-04 16:00S 33°48' W 052°18'1010.0 240 / 361001.6 17.1 22.2
2018-Dec-04 15:00S 33°48' W 052°06'8 7.8 250 / 351001.5 17.2 22.2
2018-Dec-04 14:00S 33°42' W 052°00'5 5.0 250 / 351001.4 17.3 22.2
2018-Dec-04 13:00S 33°42' W 051°54'1010.0 260 / 321001.4 17.1 22.2
2018-Dec-04 12:00S 33°42' W 051°42'1010.0 260 / 311001.2 16.9 22.2
2018-Dec-04 11:00S 33°42' W 051°30'5 5.0 260 / 321000.8 17.0 22.2
2018-Dec-04 10:00S 33°42' W 051°24'1211.7 260 / 321000.7 17.2 22.2
2018-Dec-04 09:00S 33°36' W 051°12'1211.7 270 / 291000.4 17.2 22.2
2018-Dec-04 08:00S 33°42' W 051°00'1211.7 260 / 291000.5 18.0 22.2
2018-Dec-04 07:00S 33°36' W 050°48'8 7.8 290 / 271000.2 18.6 22.2
2018-Dec-04 06:00S 33°30' W 050°42'1010.0 280 / 261001.5 18.8 22.2
2018-Dec-04 05:00S 33°30' W 050°30'1211.7 290 / 231002.4 18.7 22.2
2018-Dec-04 04:00S 33°24' W 050°18'1010.0 280 / 221003.5 19.0 22.2
2018-Dec-04 03:00S 33°24' W 050°06'1010.0 270 / 221004.7 18.9 22.2
2018-Dec-04 02:00S 33°24' W 049°54'8 7.8 270 / 251005.3 18.8 22.2
2018-Dec-04 01:00S 33°18' W 049°48'1010.0 260 / 291005.8 19.2 22.2
2018-Dec-04 00:00S 33°18' W 049°36'1010.0 270 / 291005.7 19.3 22.2
2018-Dec-03 23:00S 33°18' W 049°24'1211.7 280 / 271005.7 19.1 22.2
2018-Dec-03 22:00S 33°12' W 049°12'5 5.0 320 / 241006.0 16.4 22.2
2018-Dec-03 21:00S 33°12' W 049°06'1010.0 260 / 331007.0 16.0 22.2
2018-Dec-03 20:00S 33°12' W 048°54'1010.0 310 / 251006.3 19.2 22.2
2018-Dec-03 19:00S 33°12' W 048°42'1211.7 310 / 231007.1 18.8 22.2
2018-Dec-03 18:00S 33°06' W 048°30'1010.1 290 / 201008.7 18.5 22.2
2018-Dec-03 17:00S 33°06' W 048°18'5 5.0 280 / 201009.7 18.4 22.2
2018-Dec-03 16:00S 33°06' W 048°12'1211.7 270 / 211010.4 18.3 22.2
2018-Dec-03 15:00S 33°00' W 048°00'1010.1 270 / 221010.8 18.2 22.2
2018-Dec-03 14:00S 33°00' W 047°48'5 5.0 270 / 251011.2 18.3 22.2
2018-Dec-03 13:00S 33°00' W 047°42'1010.1 270 / 231011.2 18.5 22.2
2018-Dec-03 12:00S 33°00' W 047°30'8 7.8 260 / 161011.2 18.1 22.2
2018-Dec-03 11:00S 32°54' W 047°24'1010.1 250 / 131011.5 18.1 22.2
2018-Dec-03 10:00S 32°54' W 047°12'5 5.0 230 / 161011.4 16.3 22.2
2018-Dec-03 09:00S 32°54' W 047°06'1211.7 230 / 141011.1 16.6 22.2
2018-Dec-03 08:00S 32°48' W 046°54'1010.1 240 / 181010.7 17.1 22.2
2018-Dec-03 07:00S 32°48' W 046°42'8 7.8 230 / 191010.2 17.4 22.1
2018-Dec-03 06:00S 32°42' W 046°36'1010.1 230 / 211010.2 17.8 22.1
2018-Dec-03 05:00S 32°42' W 046°24'8 7.8 220 / 221010.3 17.6 21.8
2018-Dec-03 04:00S 32°36' W 046°18'1010.1 230 / 231010.6 17.9 21.5
2018-Dec-03 03:00S 32°36' W 046°06'1211.8 230 / 231011.1 18.2 21.5
2018-Dec-03 02:00S 32°30' W 045°54'5 5.1 220 / 241011.4 17.8 20.5
2018-Dec-03 01:00S 32°30' W 045°48'1211.8 210 / 281011.2 18.1 20.6
2018-Dec-03 00:00S 32°24' W 045°36'5 5.1 210 / 301010.5 18.2 20.1
2018-Dec-02 23:00S 32°24' W 045°30'   210 / 311009.6 18.3 20.0
Track history (hours):
 
Tides and Currents Weather Stations Pressure Air Temp Water Temp Dewpoint Dewpoint Depression Visibility Wind Speed Wind Dir Waves Ship Positions

Oceanographic research ship Nathaniel B. Palmer (USA)

Contact: Ethan Norris, ethan.norris.contractor@usap.gov

Detailed information on ship capabilities available from University of Delaware's Ocean Information Center and ARCUS's ALIAS (Arctic Logistics Information and Support) project.

Owner: OFFSHORE SERVICE VESSELS, Cut Off, LA. More information available from US FCC via Universal Licensing System and Coast Guard Vessel Documentation Center.

Last reported at 2018-Dec-12 23:00 UTC. Time now 2018-Dec-12 23:50 UTC.
Position S 53°06' W 070°54'.

Type: Other ship. MMSI: 366610000.

Wind from 310 at 11 knots

Barometer 999.1 mb
Air temperature 15.4 ° C
Water temperature -0.0 ° C

Date/timePositionNaut miles runAvg speedWind from/ knotsBaromVisibWave heightAir tempDewpointWater temp
2018-Dec-12 23:00S 53°06' W 070°54'0 0.0 310 / 11999.1 15.4 -0.0
2018-Dec-12 22:00S 53°06' W 070°54'0 0.0 330 / 11999.2 15.9 -0.0
2018-Dec-12 21:00S 53°06' W 070°54'0 0.0 350 / 12999.6 16.0 -0.0
2018-Dec-12 20:00S 53°06' W 070°54'0 0.0 340 / 13999.8 15.7 -0.0
2018-Dec-12 19:00S 53°06' W 070°54'0 0.0 350 / 141000.3 15.3 -0.0
2018-Dec-12 18:00S 53°06' W 070°54'0 0.0 340 / 151000.5 14.7 -0.0
2018-Dec-12 17:00S 53°06' W 070°54'0 0.0 340 / 131001.1 14.4 -0.0
2018-Dec-12 16:00S 53°06' W 070°54'0 0.0 350 / 131001.4 13.7 -0.0
2018-Dec-12 15:00S 53°06' W 070°54'0 0.0 350 / 131001.6 13.2 -0.0
2018-Dec-12 14:00S 53°06' W 070°54'4 3.6 1001.9 12.8 -0.0
2018-Dec-12 13:00S 53°06' W 070°48'9 9.4 010 / 121002.6 10.4 -0.0
2018-Dec-12 12:00S 53°00' W 070°36'9 9.4 360 / 151003.2 9.9 -0.0
2018-Dec-12 11:00S 52°54' W 070°24'1212.0 340 / 211003.7 9.4 -0.0
2018-Dec-12 10:00S 52°42' W 070°24'7 7.3 340 / 181004.1 9.4 -0.0
2018-Dec-12 09:00S 52°42' W 070°12'1212.5 340 / 181004.1 10.0 -0.0
2018-Dec-12 08:00S 52°36' W 069°54'1212.5 340 / 111004.7 9.7 -0.0
2018-Dec-12 07:00S 52°30' W 069°36'1616.3 330 / 91005.6 9.5 -0.0
2018-Dec-12 06:00S 52°18' W 069°18'1111.0 330 / 141006.0 9.4 -0.0
2018-Dec-12 05:00S 52°18' W 069°00'1312.5 320 / 161006.3 10.0 -0.0
2018-Dec-12 04:00S 52°24' W 068°42'9 9.5 300 / 211006.1 10.2 -0.0
2018-Dec-12 03:00S 52°30' W 068°30'1212.5 290 / 171006.1 9.8 -0.0
2018-Dec-12 02:00S 52°36' W 068°12'1110.9 280 / 141006.2 9.7 -0.0
2018-Dec-12 01:00S 52°36' W 067°54'1414.0 260 / 161005.6 9.9 -0.0
2018-Dec-12 00:00S 52°24' W 067°42'9 9.5 260 / 181005.5 9.9 -0.0
2018-Dec-11 23:00S 52°18' W 067°30'7 7.0 260 / 221005.0 10.0 -0.0
2018-Dec-11 22:00S 52°12' W 067°24'1414.1 250 / 241004.8 10.0 -0.0
2018-Dec-11 21:00S 52°00' W 067°12'1312.6 240 / 201004.8 9.7 -0.0
2018-Dec-11 20:00S 51°48' W 067°06'0 0.0 240 / 231004.4 9.4 -0.0
2018-Dec-11 19:00S 51°48' W 067°06'8510.6 230 / 241004.0 9.4 -0.0
2018-Dec-11 11:00S 50°30' W 066°12'7 7.1 230 / 191000.3 11.8 22.2
2018-Dec-11 10:00S 50°24' W 066°06'1312.6 220 / 12999.3 12.1 22.2
2018-Dec-11 09:00S 50°12' W 066°00'1312.6 240 / 12998.2 12.8 22.2
2018-Dec-11 08:00S 50°00' W 065°54'7 7.1 250 / 10997.4 13.7 22.2
2018-Dec-11 07:00S 49°54' W 065°48'1312.6 270 / 8996.9 14.1 22.2
2018-Dec-11 06:00S 49°42' W 065°42'7 7.1 240 / 10996.8 14.4 22.2
2018-Dec-11 05:00S 49°36' W 065°36'1312.6 240 / 12996.6 13.9 22.2
2018-Dec-11 04:00S 49°24' W 065°30'7 7.2 270 / 17996.7 15.3 22.2
2018-Dec-11 03:00S 49°18' W 065°24'1312.6 290 / 22996.3 16.5 22.2
2018-Dec-11 02:00S 49°06' W 065°18'1312.6 300 / 20996.2 17.2 22.2
2018-Dec-11 01:00S 48°54' W 065°12'10 9.9 310 / 13996.6 17.9 22.2
2018-Dec-11 00:00S 48°48' W 065°00'1312.6 270 / 4996.5 16.7 22.2
2018-Dec-10 23:00S 48°36' W 064°54'1312.6 040 / 7995.6 15.3 22.2
2018-Dec-10 22:00S 48°24' W 064°48'7 7.2 010 / 12995.5 15.0 22.2
2018-Dec-10 21:00S 48°18' W 064°42'1312.6 360 / 12996.0 14.1 22.2
2018-Dec-10 20:00S 48°06' W 064°36'7 7.2 350 / 13996.6 13.8 22.2
2018-Dec-10 19:00S 48°00' W 064°30'1312.7 330 / 12997.2 13.5 22.2
2018-Dec-10 18:00S 47°48' W 064°24'7 7.2 330 / 18997.8 13.7 22.2
2018-Dec-10 17:00S 47°42' W 064°18'1312.7 320 / 22998.3 13.9 22.2
2018-Dec-10 16:00S 47°30' W 064°12'1312.7 320 / 21998.9 14.0 22.2
2018-Dec-10 15:00S 47°18' W 064°06'7 7.3 310 / 21999.6 14.3 22.2
2018-Dec-10 14:00S 47°12' W 064°00'1312.7 310 / 161000.4 14.1 22.2
2018-Dec-10 13:00S 47°00' W 063°54'1312.7 300 / 181000.9 14.1 22.2
2018-Dec-10 12:00S 46°48' W 063°48'7 7.3 290 / 211001.1 14.9 22.2
2018-Dec-10 11:00S 46°42' W 063°42'1312.7 290 / 221000.9 15.7 22.2
2018-Dec-10 10:00S 46°30' W 063°36'7 7.3 300 / 171001.3 15.8 22.2
2018-Dec-10 09:00S 46°24' W 063°30'1312.7 300 / 161001.9 15.3 22.2
2018-Dec-10 08:00S 46°12' W 063°24'1312.7 320 / 131002.3 15.0 22.2
2018-Dec-10 07:00S 46°00' W 063°18'7 7.3 350 / 101002.9 14.6 22.2
2018-Dec-10 06:00S 45°54' W 063°12'1312.7 1003.5 14.5 22.2
2018-Dec-10 05:00S 45°42' W 063°06'1312.7 340 / 91004.4 14.3 22.2
2018-Dec-10 04:00S 45°30' W 063°00'7 7.3 330 / 111004.8 14.1 22.2
2018-Dec-10 03:00S 45°24' W 062°54'1312.7 310 / 121004.9 14.1 22.2
2018-Dec-10 02:00S 45°12' W 062°48'7 7.3 310 / 111005.0 14.2 22.2
2018-Dec-10 01:00S 45°06' W 062°42'1312.7 310 / 51004.5 14.3 22.2
2018-Dec-10 00:00S 44°54' W 062°36'1312.7 200 / 41003.9 14.5 22.2
2018-Dec-09 23:00S 44°42' W 062°30'7 7.4 210 / 81003.9 14.6 22.2
2018-Dec-09 22:00S 44°36' W 062°24'1312.7 220 / 101004.0 14.4 22.2
2018-Dec-09 21:00S 44°24' W 062°18'7 7.4 240 / 141004.1 14.3 22.2
2018-Dec-09 20:00S 44°18' W 062°12'1312.7 240 / 151004.0 14.3 22.2
2018-Dec-09 19:00S 44°06' W 062°06'6 6.0 240 / 191003.7 14.3 22.2
2018-Dec-09 18:00S 44°00' W 062°06'1312.8 250 / 231003.0 14.2 22.2
2018-Dec-09 17:00S 43°48' W 062°00'7 7.4 250 / 191003.0 14.3 22.2
2018-Dec-09 16:00S 43°42' W 061°54'1514.8 250 / 161003.0 14.5 22.2
2018-Dec-09 15:00S 43°30' W 061°42'7 7.4 260 / 131002.8 14.6 22.2
2018-Dec-09 14:00S 43°24' W 061°36'7 7.4 250 / 141002.4 15.0 22.2
2018-Dec-09 13:00S 43°18' W 061°30'1312.8 250 / 151002.1 15.1 22.2
2018-Dec-09 12:00S 43°06' W 061°24'1110.6 260 / 161001.8 15.2 22.2
2018-Dec-09 11:00S 43°00' W 061°12'7 7.4 260 / 201000.9 15.8 22.2
2018-Dec-09 10:00S 42°54' W 061°06'1514.9 250 / 201000.1 16.1 22.2
2018-Dec-09 09:00S 42°42' W 060°54'7 7.4 270 / 13999.7 15.7 22.2
2018-Dec-09 08:00S 42°36' W 060°48'1312.8 300 / 16999.4 16.3 22.2
2018-Dec-09 07:00S 42°24' W 060°42'1110.7 310 / 21999.5 17.5 22.2
2018-Dec-09 06:00S 42°18' W 060°30'7 7.5 310 / 231000.1 18.5 22.2
2018-Dec-09 05:00S 42°12' W 060°24'7 7.5 310 / 151000.2 20.0 22.2
2018-Dec-09 04:00S 42°06' W 060°18'1515.0 010 / 4999.2 24.5 22.2
2018-Dec-09 03:00S 41°54' W 060°06'7 7.5 240 / 221000.2 22.9 22.2
2018-Dec-09 02:00S 41°48' W 060°00'7 7.5 290 / 39999.5 21.2 22.2
2018-Dec-09 01:00S 41°42' W 059°54'1515.0 330 / 241001.5 18.0 22.2
2018-Dec-09 00:00S 41°30' W 059°42'7 7.5 360 / 241000.9 17.6 22.2
2018-Dec-08 23:00S 41°24' W 059°36'1312.8 1001.4 17.6 22.2
2018-Dec-08 22:00S 41°12' W 059°30'1110.8 1002.6 17.8 22.2
2018-Dec-08 21:00S 41°06' W 059°18'1312.8 1004.0 17.4 22.2
2018-Dec-08 20:00S 40°54' W 059°12'8 7.5 360 / 211005.6 17.3 22.2
2018-Dec-08 19:00S 40°48' W 059°06'1110.9 350 / 181007.2 16.7 22.2
2018-Dec-08 18:00S 40°42' W 058°54'1312.8 350 / 191008.5 16.7 22.2
2018-Dec-08 17:00S 40°30' W 058°48'8 7.5 340 / 191009.7 16.2 22.2
2018-Dec-08 16:00S 40°24' W 058°42'1110.9 340 / 181011.0 15.6 22.2
2018-Dec-08 15:00S 40°18' W 058°30'1312.8 330 / 181011.9 15.5 22.2
2018-Dec-08 14:00S 40°06' W 058°24'8 7.6 330 / 181012.6 15.7 22.2
2018-Dec-08 13:00S 40°00' W 058°18'1111.0 320 / 181013.5 15.6 22.2
2018-Dec-08 12:00S 39°54' W 058°06'1312.9 310 / 201014.3 15.7 22.2
2018-Dec-08 11:00S 39°42' W 058°00'8 7.6 310 / 191014.6 15.6 22.2
2018-Dec-08 10:00S 39°36' W 057°54'1312.9 320 / 191014.6 15.7 22.2
2018-Dec-08 09:00S 39°24' W 057°48'1111.1 310 / 201014.8 15.8 22.2
2018-Dec-08 08:00S 39°18' W 057°36'8 7.6 320 / 191015.1 15.8 22.2
2018-Dec-08 07:00S 39°12' W 057°30'8 7.6 320 / 201015.4 16.2 22.2
2018-Dec-08 06:00S 39°06' W 057°24'1312.9 320 / 201016.2 16.4 22.2
2018-Dec-08 05:00S 38°54' W 057°18'8 7.6 330 / 191017.1 16.1 22.2
2018-Dec-08 04:00S 38°48' W 057°12'1111.1 350 / 191018.1 15.9 22.2
2018-Dec-08 03:00S 38°42' W 057°00'1312.9 350 / 181019.2 15.5 22.2
2018-Dec-08 02:00S 38°30' W 056°54'8 7.6 350 / 181019.8 15.1 22.2
2018-Dec-08 01:00S 38°24' W 056°48'1515.3 360 / 161020.3 14.8 22.2
2018-Dec-08 00:00S 38°12' W 056°36'8 7.6 1020.5 14.6 22.2
2018-Dec-07 23:00S 38°06' W 056°30'1111.2 360 / 141020.9 14.5 22.2
2018-Dec-07 22:00S 38°00' W 056°18'1111.2 350 / 101021.5 14.2 22.2
2018-Dec-07 21:00S 37°54' W 056°06'8 7.6 340 / 71022.1 13.7 22.2
2018-Dec-07 20:00S 37°48' W 056°00'1515.3 330 / 61022.9 13.1 22.2
2018-Dec-07 19:00S 37°36' W 055°48'8 7.7 290 / 71023.7 12.6 22.2
2018-Dec-07 18:00S 37°30' W 055°42'8 7.7 270 / 81024.3 12.1 22.2
2018-Dec-07 17:00S 37°24' W 055°36'1312.9 250 / 71024.9 11.9 22.2
2018-Dec-07 16:00S 37°12' W 055°30'8 7.7 230 / 81025.3 11.9 22.2
2018-Dec-07 15:00S 37°06' W 055°24'1312.9 230 / 91025.3 11.8 22.2
2018-Dec-07 14:00S 36°54' W 055°18'8 7.7 220 / 111025.4 11.8 22.2
2018-Dec-07 13:00S 36°48' W 055°12'8 7.7 200 / 121025.3 11.8 22.2
2018-Dec-07 12:00S 36°42' W 055°06'1312.9 200 / 141025.3 11.9 22.2
2018-Dec-07 11:00S 36°30' W 055°00'8 7.7 200 / 161024.6 12.0 22.2
2018-Dec-07 10:00S 36°24' W 054°54'1212.0 200 / 181024.2 11.8 22.2
2018-Dec-07 09:00S 36°12' W 054°54'8 7.7 190 / 181023.8 11.7 22.2
2018-Dec-07 08:00S 36°06' W 055°00'1212.0 190 / 181023.4 12.0 22.2
2018-Dec-07 07:00S 35°54' W 055°00'1212.0 180 / 181023.3 12.3 22.2
2018-Dec-07 06:00S 35°42' W 055°00'6 6.0 180 / 161023.5 12.4 22.2
2018-Dec-07 05:00S 35°36' W 055°00'1212.0 170 / 161023.8 12.6 22.2
2018-Dec-07 04:00S 35°24' W 055°00'6 6.0 180 / 191024.2 12.8 22.2
2018-Dec-07 03:00S 35°18' W 055°00'1212.0 180 / 191024.4 13.0 22.2
2018-Dec-07 02:00S 35°06' W 055°00'8 7.8 180 / 181024.4 13.3 22.2
2018-Dec-07 01:00S 35°00' W 055°06'10 9.8 180 / 171024.2 13.6 22.2
2018-Dec-07 00:00S 35°00' W 055°18'10 9.8 180 / 171023.8 13.8 22.2
2018-Dec-06 23:00S 35°00' W 055°30'1514.7 170 / 181023.3 14.0 22.2
2018-Dec-06 22:00S 35°00' W 055°48'10 9.8 170 / 171023.0 14.2 22.2
2018-Dec-06 21:00S 35°00' W 056°00'1211.5 170 / 161023.1 14.3 22.2
2018-Dec-06 20:00S 34°54' W 056°12'0 0.0 160 / 171023.3 14.6 22.2
2018-Dec-06 19:00S 34°54' W 056°12'0 0.0 170 / 111023.7 15.9 22.2
2018-Dec-06 18:00S 34°54' W 056°12'0 0.0 170 / 111024.0 15.6 22.2
2018-Dec-06 17:00S 34°54' W 056°12'0 0.0 180 / 111024.4 16.0 22.2
2018-Dec-06 16:00S 34°54' W 056°12'0 0.0 180 / 101024.9 15.7 22.2
2018-Dec-06 15:00S 34°54' W 056°12'0 0.0 170 / 101024.5 15.6 22.2
2018-Dec-06 14:00S 34°54' W 056°12'0 0.0 170 / 121023.9 15.2 22.2
2018-Dec-06 13:00S 34°54' W 056°12'0 0.0 170 / 131023.2 15.3 22.2
2018-Dec-06 12:00S 34°54' W 056°12'0 0.0 170 / 131022.5 15.3 22.2
2018-Dec-06 11:00S 34°54' W 056°12'0 0.0 170 / 141021.9 15.3 22.2
2018-Dec-06 10:00S 34°54' W 056°12'0 0.0 170 / 141021.2 15.2 22.2
2018-Dec-06 09:00S 34°54' W 056°12'0 0.0 180 / 161020.4 15.5 22.2
2018-Dec-06 08:00S 34°54' W 056°12'0 0.0 180 / 151019.4 16.1 22.2
2018-Dec-06 07:00S 34°54' W 056°12'0 0.0 180 / 121019.3 16.2 22.2
2018-Dec-06 06:00S 34°54' W 056°12'0 0.0 180 / 131019.2 16.5 22.2
2018-Dec-06 05:00S 34°54' W 056°12'0 0.0 180 / 111019.5 16.6 22.2
2018-Dec-06 04:00S 34°54' W 056°12'0 0.0 180 / 101019.9 16.7 22.2
2018-Dec-06 03:00S 34°54' W 056°12'0 0.0 170 / 101019.9 16.9 22.2
2018-Dec-06 02:00S 34°54' W 056°12'0 0.0 160 / 101019.5 17.0 22.2
2018-Dec-06 01:00S 34°54' W 056°12'0 0.0 160 / 101018.8 17.3 22.2
2018-Dec-06 00:00S 34°54' W 056°12'0 0.0 150 / 121017.7 17.4 22.2
2018-Dec-05 23:00S 34°54' W 056°12'0 0.0 150 / 111017.3 17.8 22.2
2018-Dec-05 22:00S 34°54' W 056°12'8 7.8 150 / 161016.8 17.8 22.2
2018-Dec-05 21:00S 35°00' W 056°06'5 4.9 160 / 121016.8 18.1 22.2
2018-Dec-05 20:00S 35°00' W 056°00'0 0.0 170 / 161016.8 18.1 22.2
2018-Dec-05 19:00S 35°00' W 056°00'0 0.0 180 / 141016.8 18.1 22.2
2018-Dec-05 18:00S 35°00' W 056°00'0 0.0 170 / 151016.7 18.2 22.2
2018-Dec-05 17:00S 35°00' W 056°00'0 0.0 170 / 151016.7 18.1 22.2
2018-Dec-05 16:00S 35°00' W 056°00'5 4.9 170 / 161016.3 17.8 22.2
2018-Dec-05 15:00S 35°00' W 055°54'1514.7 170 / 171015.8 17.6 22.2
2018-Dec-05 14:00S 35°00' W 055°36'10 9.8 170 / 181015.2 17.4 22.2
2018-Dec-05 13:00S 35°00' W 055°24'5 4.9 180 / 191014.3 17.2 22.2
2018-Dec-05 12:00S 35°00' W 055°18'10 9.8 180 / 181013.5 17.1 22.2
2018-Dec-05 11:00S 35°00' W 055°06'10 9.8 190 / 191012.7 17.0 22.2
2018-Dec-05 10:00S 35°00' W 054°54'10 9.8 190 / 191011.6 16.9 22.2
2018-Dec-05 09:00S 35°00' W 054°42'5 4.9 190 / 191010.7 16.6 22.2
2018-Dec-05 08:00S 35°00' W 054°36'1211.5 180 / 201009.6 16.6 22.2
2018-Dec-05 07:00S 34°54' W 054°24'10 9.8 170 / 211008.6 16.6 22.2
2018-Dec-05 06:00S 34°54' W 054°12'8 7.8 170 / 231008.2 16.7 22.2
2018-Dec-05 05:00S 34°48' W 054°06'1211.5 180 / 231008.2 16.8 22.2
2018-Dec-05 04:00S 34°42' W 053°54'1211.6 180 / 211007.9 16.9 22.2
2018-Dec-05 03:00S 34°36' W 053°42'5 4.9 190 / 211007.5 16.9 22.2
2018-Dec-05 02:00S 34°36' W 053°36'1211.6 190 / 241006.7 17.1 22.2
2018-Dec-05 01:00S 34°30' W 053°24'1211.6 190 / 261005.8 17.0 22.2
2018-Dec-05 00:00S 34°24' W 053°12'8 7.8 200 / 281004.8 16.8 22.2
2018-Dec-04 23:00S 34°18' W 053°06'8 7.8 200 / 271004.1 16.9 22.2
2018-Dec-04 22:00S 34°12' W 053°00'10 9.9 200 / 311003.1 17.1 22.2
2018-Dec-04 21:00S 34°12' W 052°48'8 7.8 210 / 341002.3 17.2 22.2
2018-Dec-04 20:00S 34°06' W 052°42'8 7.8 220 / 341002.1 17.3 22.2
2018-Dec-04 19:00S 34°00' W 052°36'5 5.0 220 / 361001.7 17.2 22.2
2018-Dec-04 18:00S 34°00' W 052°30'8 7.8 230 / 341001.8 17.2 22.2
2018-Dec-04 17:00S 33°54' W 052°24'8 7.8 240 / 351001.6 17.1 22.2
2018-Dec-04 16:00S 33°48' W 052°18'1010.0 240 / 361001.6 17.1 22.2
2018-Dec-04 15:00S 33°48' W 052°06'8 7.8 250 / 351001.5 17.2 22.2
2018-Dec-04 14:00S 33°42' W 052°00'5 5.0 250 / 351001.4 17.3 22.2
2018-Dec-04 13:00S 33°42' W 051°54'1010.0 260 / 321001.4 17.1 22.2
2018-Dec-04 12:00S 33°42' W 051°42'1010.0 260 / 311001.2 16.9 22.2
2018-Dec-04 11:00S 33°42' W 051°30'5 5.0 260 / 321000.8 17.0 22.2
2018-Dec-04 10:00S 33°42' W 051°24'1211.7 260 / 321000.7 17.2 22.2
2018-Dec-04 09:00S 33°36' W 051°12'1211.7 270 / 291000.4 17.2 22.2
2018-Dec-04 08:00S 33°42' W 051°00'1211.7 260 / 291000.5 18.0 22.2
2018-Dec-04 07:00S 33°36' W 050°48'8 7.8 290 / 271000.2 18.6 22.2
2018-Dec-04 06:00S 33°30' W 050°42'1010.0 280 / 261001.5 18.8 22.2
2018-Dec-04 05:00S 33°30' W 050°30'1211.7 290 / 231002.4 18.7 22.2
2018-Dec-04 04:00S 33°24' W 050°18'1010.0 280 / 221003.5 19.0 22.2
2018-Dec-04 03:00S 33°24' W 050°06'1010.0 270 / 221004.7 18.9 22.2
2018-Dec-04 02:00S 33°24' W 049°54'8 7.8 270 / 251005.3 18.8 22.2
2018-Dec-04 01:00S 33°18' W 049°48'1010.0 260 / 291005.8 19.2 22.2
2018-Dec-04 00:00S 33°18' W 049°36'1010.0 270 / 291005.7 19.3 22.2
2018-Dec-03 23:00S 33°18' W 049°24'1211.7 280 / 271005.7 19.1 22.2
2018-Dec-03 22:00S 33°12' W 049°12'5 5.0 320 / 241006.0 16.4 22.2
2018-Dec-03 21:00S 33°12' W 049°06'1010.0 260 / 331007.0 16.0 22.2
2018-Dec-03 20:00S 33°12' W 048°54'1010.0 310 / 251006.3 19.2 22.2
2018-Dec-03 19:00S 33°12' W 048°42'1211.7 310 / 231007.1 18.8 22.2
2018-Dec-03 18:00S 33°06' W 048°30'1010.1 290 / 201008.7 18.5 22.2
2018-Dec-03 17:00S 33°06' W 048°18'5 5.0 280 / 201009.7 18.4 22.2
2018-Dec-03 16:00S 33°06' W 048°12'1211.7 270 / 211010.4 18.3 22.2
2018-Dec-03 15:00S 33°00' W 048°00'1010.1 270 / 221010.8 18.2 22.2
2018-Dec-03 14:00S 33°00' W 047°48'5 5.0 270 / 251011.2 18.3 22.2
2018-Dec-03 13:00S 33°00' W 047°42'1010.1 270 / 231011.2 18.5 22.2
2018-Dec-03 12:00S 33°00' W 047°30'8 7.8 260 / 161011.2 18.1 22.2
2018-Dec-03 11:00S 32°54' W 047°24'1010.1 250 / 131011.5 18.1 22.2
2018-Dec-03 10:00S 32°54' W 047°12'5 5.0 230 / 161011.4 16.3 22.2
2018-Dec-03 09:00S 32°54' W 047°06'1211.7 230 / 141011.1 16.6 22.2
2018-Dec-03 08:00S 32°48' W 046°54'1010.1 240 / 181010.7 17.1 22.2
2018-Dec-03 07:00S 32°48' W 046°42'8 7.8 230 / 191010.2 17.4 22.1
2018-Dec-03 06:00S 32°42' W 046°36'1010.1 230 / 211010.2 17.8 22.1
2018-Dec-03 05:00S 32°42' W 046°24'8 7.8 220 / 221010.3 17.6 21.8
2018-Dec-03 04:00S 32°36' W 046°18'1010.1 230 / 231010.6 17.9 21.5
2018-Dec-03 03:00S 32°36' W 046°06'1211.8 230 / 231011.1 18.2 21.5
2018-Dec-03 02:00S 32°30' W 045°54'5 5.1 220 / 241011.4 17.8 20.5
2018-Dec-03 01:00S 32°30' W 045°48'1211.8 210 / 281011.2 18.1 20.6
2018-Dec-03 00:00S 32°24' W 045°36'5 5.1 210 / 301010.5 18.2 20.1
2018-Dec-02 23:00S 32°24' W 045°30'   210 / 311009.6 18.3 20.0

Dump ship's entire track history